Hartford, Connecticut
Traffic Map
Current Weather Conditions
Hartford, Connecticut
Overcast
Overcast
23°
Feels Like: 23°
Wind Chill: 23° Ceiling: 7500
Heat Index: 23° Visibility: 10mi
Dew Point: 13° Wind: 5mph
Humidity: 53% Direction: 70° (ENE)
Pressure: 30.09in Gusts: 0mph
Raw Report DataKHFD 231953Z 07004KT 10SM FEW048 OVC075 23/13 A3009 RMK AO2 SLP189 T02280128
Traffic Incident Summary
Active as of:
Severity:
Category:
InformationThere was an issue retrieving the traffic information for this location. Please try a different location or try again shortly.
Advertisements
Track Severe Weather on mobile